Airfield :
LOGIN :

Register | Disclaimer

   EN    FR    IT 

 










Legend :    VFR   Marginal VFR   IFR   Intensive IFR   Very Intensive IFR
Visi :
Ceiling :
>= 8 km
>= 3000ft
5 to 8 km
1000 to 3000 ft
1500m to 5 km
500 to 1000 ft
800 to 1500m
200 to 500 ft
< 800m
< 200 ft
Symbols :   Thunderstorms  Fog  Heavy snow  Heavy precipitations  Wind > 20 kt
SIGMETs :     Misc.  Thunderstorms  Icing  Turbulence  Mountain Waves  Volcanic Ashes






- Airport Elevation : 364 ft
- IATA code : FRA


EDDF - Frankfurt Int.

CURRENT METAR :
  • 021050Z VRB04KT CAVOK 25/08 Q1022 NOSIG

EXPIRED METARs :
  • 021020Z 14005KT 060V210 CAVOK 25/08 Q1022 NOSIG
  • 020950Z 11006KT 020V150 CAVOK 24/09 Q1023 NOSIG
  • 020920Z VRB06KT CAVOK 24/08 Q1023 NOSIG
  • 020850Z 07005KT 360V120 9999 FEW045 23/09 Q1023 NOSIG
  • 020820Z VRB03KT 9999 FEW037 23/11 Q1023 NOSIG
  • 012150Z VRB02KT 9999 FEW040 14/11 Q1022 NOSIG

TAF TAF EDDF
Valid from the 02 at 06:00 until the 03 at 12:00 UTC


020500Z 0206/0312 06004KT CAVOK
BECMG 0208/0210 16007KT
BECMG 0218/0220 VRB02KT
BECMG 0306/0308 23008KT



MET'MAP, your aeronautical weather chart ! - Copyright ORBIFLY December 2007 - Disclaimer

ORBIFLY MET'MAP TEAM :

Programming & Development : Alexandra Zaïnal
Original concept : Baudouin d'Aumeries
Technical & hardware support : Manuel Goepfert
Assistance : Marc-Olivier Méhu




SOURCES & CREDITS :

   NOAA